This is the latest recevied weather packets stored in our database for station/object W0VI. If no packets are shown the sender has not sent any weather packets the latest 10 day(s).
| Time | Temp. | Humidity | Pressure | Rain* | Wind** | Luminosity | Snow |
|---|---|---|---|---|---|---|---|
| 1787665386 | 20.56° C | 81% | 1016.6 hPa | 0 mm | - | 46 W/m² | - |
| 1787665082 | 20.56° C | 81% | 1016.1 hPa | 0 mm | - | 90 W/m² | - |
| 1787664779 | 20.56° C | 82% | 1016.1 hPa | 0 mm | - | 92 W/m² | - |
| 1787664478 | 20.56° C | 82% | 1016 hPa | 0 mm | - | 103 W/m² | - |
| 1787664173 | 20.56° C | 82% | 1015.7 hPa | 0 mm | - | 116 W/m² | - |
| 1787663872 | 20.56° C | 82% | 1015.9 hPa | 0 mm | - | 87 W/m² | - |
| 1787663573 | 20.56° C | 83% | 1016.1 hPa | 0 mm | - | 72 W/m² | - |
| 1787663263 | 20.56° C | 83% | 1016.1 hPa | 0 mm | - | 80 W/m² | - |
| 1787662959 | 20.56° C | 83% | 1016.1 hPa | 0 mm | - | 85 W/m² | - |
| 1787662659 | 20.56° C | 84% | 1015.7 hPa | 0 mm | - | 95 W/m² | - |
| 1787662354 | 20.56° C | 85% | 1015.6 hPa | 0 mm | - | 113 W/m² | - |
| 1787662050 | 20° C | 86% | 1015.7 hPa | 0 mm | - | 97 W/m² | - |
| 1787661747 | 20° C | 87% | 1015.6 hPa | 0 mm | - | 73 W/m² | - |
| 1787661445 | 20° C | 87% | 1015.9 hPa | 0 mm | - | 62 W/m² | - |
| 1787661144 | 20° C | 88% | 1015.8 hPa | 0 mm | - | 71 W/m² | - |
| 1787660843 | 20° C | 89% | 1016 hPa | 0 mm | - | 69 W/m² | - |
| 1787660539 | 19.44° C | 90% | 1016 hPa | 0 mm | - | 62 W/m² | - |
| 1787660238 | 19.44° C | 91% | 1015.9 hPa | 0 mm | - | 38 W/m² | - |
| 1787659934 | 19.44° C | 91% | 1016 hPa | 0 mm | - | 29 W/m² | - |
| 1787659630 | 19.44° C | 91% | 1016.1 hPa | 0 mm | - | 25 W/m² | - |
| 1787659327 | 19.44° C | 91% | 1016.3 hPa | 0 mm | - | 21 W/m² | - |
| 1787659021 | 19.44° C | 90% | 1016.1 hPa | 0 mm | - | 17 W/m² | - |
| 1787658721 | 19.44° C | 90% | 1016.2 hPa | 0 mm | - | 12 W/m² | - |
| 1787658420 | 19.44° C | 90% | 1016.2 hPa | 0 mm | - | 10 W/m² | - |
| 1787658116 | 20° C | 90% | 1016.2 hPa | 0 mm | - | 6 W/m² | - |
* Rain latest hour (hover to see other rain measurements)
** Current wind speed in m/s (hover to see current wind gust speed)